LFGJ

Details ICAO LFGJ (DLE)
Name Dole Tavaux
Region France
Timezone Europe/Paris (UTC+1.0)
Plans Departing 57
Arriving 75
Stats Elevation 645 ft / 197 m (AMSL)
Location 47.038900° 5.427260°
Runways 1
Magnetic Variation 1.670° E
Sunrise 2018-12-16 07:19:27 UTC / 2018-12-16 08:19:27 Local
Sunset 2018-12-16 15:50:54 UTC / 2018-12-16 16:50:54 Local
Advertisement - Login to hide

Runways

ID Width Length Bearing (true/mag) Surface Threshold Overrun Markings Lighting
05 148 ft / 45 m 7,306 ft / 2,227 m 54.25° / 52.58° ASPHALT 0 ft / 0 m 0 ft / 0 m PREC-APP EDGE THRESHOLD REIL-OMNI
23 148 ft / 45 m 7,306 ft / 2,227 m 234.27° / 232.60° ASPHALT 0 ft / 0 m 1,214 ft / 370 m PREC-APP EDGE THRESHOLD REIL-OMNI

Approach Navaids

Runway Type Ident Frequency Range Bearing (true/mag) Slope Elevation
05 DME DO 109.35 MHz 18 nm / 33 km - - 690 ft / 210 m (AMSL)
23 LOC-ILS DO 109.70 MHz 18 nm / 33 km 234.34° / 232.67° - 643 ft / 196 m (AMSL)
23 GS DO 109.70 MHz 10 nm / 19 km 234.52° / 232.85° 3.00° 643 ft / 196 m (AMSL)

Map

Weather


0- 5 10 15 20 25 30 35+ Temperature / °C

Clouds and Precipitation
Forecast for 2018-12-16 18:00 UTC. Updated an hour ago

Ground ~20,000 ft ~40,000 ft Winds

METAR

LFGJ 161600Z AUTO 22004KT 9999 -RA BKN026 BKN230 05/04 Q1013 BECMG 3000 BR OVC005

TAF

Not found

Frequencies

Tower 130.77 MHz DOLE TWR
Warning: Do not use this data for real-world aviation or navigation. No guarantee of current accuracy is given.